createdAt,value
2023-01-05T00:02:29.662Z,1.30
2023-01-05T00:05:14.965Z,0.30
2023-01-05T00:08:00.680Z,1.35
2023-01-05T00:11:04.651Z,0.70
2023-01-05T00:14:08.589Z,0.35
2023-01-05T00:17:12.598Z,0.85
2023-01-05T00:20:17.132Z,0.77
2023-01-05T00:23:03.191Z,0.32
2023-01-05T00:25:49.049Z,0.30
2023-01-05T00:28:34.662Z,0.90
2023-01-05T00:31:20.045Z,0.68
2023-01-05T00:34:06.039Z,0.77
2023-01-05T00:36:51.528Z,0.50
2023-01-05T00:39:37.034Z,0.75
2023-01-05T00:42:23.168Z,1.33
2023-01-05T00:45:11.620Z,0.75
2023-01-05T00:47:57.121Z,0.80
2023-01-05T00:50:42.551Z,0.85
2023-01-05T00:53:28.091Z,0.52
2023-01-05T00:56:13.656Z,1.20
2023-01-05T00:58:59.666Z,0.80
2023-01-05T01:01:49.873Z,0.47
2023-01-05T01:04:36.095Z,2.05
2023-01-05T01:07:24.089Z,0.95
2023-01-05T01:10:11.211Z,0.30
2023-01-05T01:12:56.845Z,0.50
2023-01-05T01:15:43.856Z,0.68
2023-01-05T01:18:29.438Z,1.10
2023-01-05T01:21:15.191Z,0.65
2023-01-05T01:24:01.048Z,0.38
2023-01-05T01:26:46.696Z,0.25
2023-01-05T01:29:32.609Z,0.30
2023-01-05T01:32:18.211Z,0.30
2023-01-05T01:35:03.893Z,0.30
2023-01-05T01:37:50.824Z,0.30
2023-01-05T01:40:44.980Z,0.20
2023-01-05T01:43:50.259Z,1.85
2023-01-05T01:46:37.365Z,0.30
2023-01-05T01:49:22.799Z,0.30
2023-01-05T01:52:09.427Z,0.40
2023-01-05T01:54:56.250Z,0.40
2023-01-05T01:57:43.051Z,0.30
2023-01-05T02:00:29.438Z,0.30
2023-01-05T02:03:16.452Z,0.40
2023-01-05T02:06:02.283Z,0.30
2023-01-05T02:08:48.165Z,0.30
2023-01-05T02:12:10.116Z,0.55
2023-01-05T02:15:08.527Z,0.20
2023-01-05T02:18:26.873Z,0.30
2023-01-05T02:21:24.119Z,0.20
2023-01-05T02:24:31.034Z,0.63
2023-01-05T02:27:43.087Z,0.22
2023-01-05T02:30:47.385Z,0.65
2023-01-05T02:33:33.191Z,0.20
2023-01-05T02:36:42.085Z,0.28
2023-01-05T02:39:34.961Z,0.30
2023-01-05T02:42:25.289Z,0.30
2023-01-05T02:45:11.233Z,0.57
2023-01-05T02:47:57.869Z,0.32
2023-01-05T02:50:57.564Z,0.45
2023-01-05T02:53:49.660Z,0.20
2023-01-05T02:56:49.169Z,0.55
2023-01-05T02:59:41.152Z,0.20
2023-01-05T03:02:31.989Z,0.22
2023-01-05T03:05:25.716Z,0.20
2023-01-05T03:08:25.041Z,0.30
2023-01-05T03:11:35.991Z,0.85
2023-01-05T03:14:32.978Z,0.30
2023-01-05T03:17:27.017Z,0.20
2023-01-05T03:20:16.450Z,0.20
2023-01-05T03:23:24.150Z,1.10
2023-01-05T03:26:30.772Z,0.98
2023-01-05T03:29:36.730Z,0.20
2023-01-05T03:32:47.031Z,0.28
2023-01-05T03:38:41.995Z,0.25
2023-01-05T03:41:28.175Z,0.20
2023-01-05T03:44:16.573Z,0.20
2023-01-05T03:47:02.550Z,0.77
2023-01-05T03:49:48.248Z,0.22
2023-01-05T03:52:34.261Z,0.30
2023-01-05T03:55:19.845Z,0.20
2023-01-05T03:58:09.480Z,0.30
2023-01-05T04:00:57.396Z,0.93
2023-01-05T04:03:43.893Z,0.20
2023-01-05T04:06:30.626Z,0.50
2023-01-05T04:09:17.319Z,0.32
2023-01-05T04:12:04.760Z,0.20
2023-01-05T04:17:40.404Z,0.57
2023-01-05T04:20:28.007Z,0.30
2023-01-05T04:23:13.362Z,0.30
2023-01-05T04:25:58.951Z,0.20
2023-01-05T04:28:45.299Z,0.30
2023-01-05T04:31:32.000Z,0.40
2023-01-05T04:34:18.003Z,0.30
2023-01-05T04:37:03.740Z,0.45
2023-01-05T04:39:50.730Z,0.82
2023-01-05T04:42:36.239Z,0.20
2023-01-05T04:45:21.863Z,0.30
2023-01-05T04:48:07.912Z,0.47
2023-01-05T04:50:54.889Z,0.50
2023-01-05T04:53:46.568Z,0.20
2023-01-05T04:56:35.170Z,0.30
2023-01-05T04:59:23.145Z,0.20
2023-01-05T05:02:12.133Z,0.20
2023-01-05T05:05:01.162Z,0.30
2023-01-05T05:07:46.792Z,0.30
2023-01-05T05:10:34.013Z,0.32
2023-01-05T05:13:19.542Z,0.28
2023-01-05T05:16:06.672Z,0.30
2023-01-05T05:18:53.466Z,0.40
2023-01-05T05:21:43.150Z,0.57
2023-01-05T05:24:29.661Z,0.20
2023-01-05T05:27:15.294Z,0.30
2023-01-05T05:30:00.802Z,1.63
2023-01-05T05:32:46.462Z,0.35
2023-01-05T05:35:33.260Z,0.30
2023-01-05T05:38:18.938Z,0.30
2023-01-05T05:41:04.775Z,0.50
2023-01-05T05:43:50.434Z,0.50
2023-01-05T05:46:36.152Z,0.30
2023-01-05T05:49:21.734Z,0.25
2023-01-05T05:52:06.967Z,0.38
2023-01-05T05:54:52.507Z,0.28
2023-01-05T05:57:38.041Z,0.20
2023-01-05T06:00:23.663Z,0.63
2023-01-05T06:03:09.415Z,0.20
2023-01-05T06:05:54.906Z,0.50
2023-01-05T06:08:40.912Z,0.20
2023-01-05T06:11:26.664Z,0.90
2023-01-05T06:14:12.064Z,0.22
2023-01-05T06:16:57.665Z,0.20
2023-01-05T06:19:43.315Z,0.40
2023-01-05T06:22:28.836Z,0.32
2023-01-05T06:25:14.396Z,1.75
2023-01-05T06:28:00.420Z,0.50
2023-01-05T06:30:46.011Z,0.57
2023-01-05T06:33:31.578Z,0.65
2023-01-05T06:36:17.051Z,0.63
2023-01-05T06:39:02.858Z,0.40
2023-01-05T06:41:48.294Z,1.67
2023-01-05T06:44:34.046Z,2.28
2023-01-05T06:47:19.801Z,1.58
2023-01-05T06:50:06.193Z,0.70
2023-01-05T06:52:51.807Z,1.20
2023-01-05T06:55:37.352Z,0.60
2023-01-05T06:58:22.915Z,1.10
2023-01-05T07:01:08.606Z,0.65
2023-01-05T07:03:54.566Z,0.55
2023-01-05T07:06:40.100Z,0.30
2023-01-05T07:09:25.508Z,0.45
2023-01-05T07:12:11.288Z,0.50
2023-01-05T07:14:57.932Z,0.43
2023-01-05T07:17:43.799Z,0.50
2023-01-05T07:20:29.359Z,0.45
2023-01-05T07:23:15.055Z,0.55
2023-01-05T07:26:01.622Z,0.93
2023-01-05T07:28:47.685Z,0.63
2023-01-05T07:31:33.360Z,0.40
2023-01-05T07:34:20.184Z,0.40
2023-01-05T07:37:05.805Z,0.40
2023-01-05T07:39:51.370Z,0.40
2023-01-05T07:42:36.964Z,0.60
2023-01-05T07:45:23.177Z,0.40
2023-01-05T07:48:08.529Z,0.50
2023-01-05T07:51:05.750Z,0.55
2023-01-05T07:53:51.680Z,0.60
2023-01-05T07:56:37.144Z,0.77
2023-01-05T07:59:23.476Z,0.80
2023-01-05T08:02:10.873Z,0.95
2023-01-05T08:04:56.422Z,0.50
2023-01-05T08:07:42.173Z,0.65
2023-01-05T08:10:30.556Z,0.73
2023-01-05T08:13:34.825Z,0.93
2023-01-05T08:16:21.005Z,0.63
2023-01-05T08:19:10.893Z,0.80
2023-01-05T08:21:57.220Z,0.70
2023-01-05T08:24:43.045Z,1.23
2023-01-05T08:27:29.595Z,0.50
2023-01-05T08:30:15.839Z,0.80
2023-01-05T08:33:01.438Z,0.57
2023-01-05T08:35:47.443Z,0.88
2023-01-05T08:38:32.865Z,1.15
2023-01-05T08:41:31.193Z,0.68
2023-01-05T08:44:17.147Z,0.90
2023-01-05T08:47:02.865Z,0.70
2023-01-05T08:49:49.807Z,1.42
2023-01-05T08:52:37.079Z,0.73
2023-01-05T08:55:22.715Z,0.88
2023-01-05T08:58:08.328Z,0.60
2023-01-05T09:00:53.835Z,1.02
2023-01-05T09:03:39.593Z,0.85
2023-01-05T09:06:25.275Z,1.20
2023-01-05T09:09:11.908Z,1.00
2023-01-05T09:11:57.482Z,0.80
2023-01-05T09:14:43.021Z,0.80
2023-01-05T09:17:28.613Z,1.00
2023-01-05T09:20:14.636Z,1.40
2023-01-05T09:23:00.030Z,1.05
2023-01-05T09:25:45.597Z,0.95
2023-01-05T09:28:31.400Z,1.30
2023-01-05T09:31:20.275Z,1.08
2023-01-05T09:34:06.028Z,0.60
2023-01-05T09:36:51.545Z,0.98
2023-01-05T09:39:37.173Z,0.60
2023-01-05T09:42:26.664Z,0.90
2023-01-05T09:45:16.008Z,0.73
2023-01-05T09:48:01.637Z,1.50
2023-01-05T09:50:50.584Z,1.67
2023-01-05T09:53:38.590Z,1.23
2023-01-05T09:59:55.021Z,0.85
2023-01-05T10:02:50.413Z,2.38
2023-01-05T10:05:41.077Z,1.45
2023-01-05T10:08:37.791Z,1.08
2023-01-05T10:12:14.545Z,1.90
2023-01-05T10:15:16.511Z,2.17
2023-01-05T10:18:13.318Z,1.00
2023-01-05T10:21:20.413Z,1.77
2023-01-05T10:24:24.702Z,1.08
2023-01-05T10:28:01.045Z,1.83
2023-01-05T10:31:25.194Z,1.17
2023-01-05T10:34:22.621Z,2.80
2023-01-05T10:37:32.146Z,2.13
2023-01-05T10:40:54.673Z,1.15
2023-01-05T10:43:53.744Z,1.58
2023-01-05T10:46:52.151Z,1.27
2023-01-05T10:49:42.363Z,4.68
2023-01-05T10:52:28.047Z,4.65
2023-01-05T10:55:17.787Z,1.77
2023-01-05T11:00:49.750Z,1.35
2023-01-05T11:04:23.000Z,1.42
2023-01-05T11:06:43.928Z,2.47
2023-01-05T11:09:30.080Z,3.83
2023-01-05T11:12:21.708Z,2.55
2023-01-05T11:15:15.518Z,1.77
2023-01-05T11:18:01.971Z,3.33
2023-01-05T11:21:11.759Z,1.98
2023-01-05T11:23:59.491Z,1.35
2023-01-05T11:26:50.343Z,1.27
2023-01-05T11:29:35.995Z,1.35
2023-01-05T11:32:21.420Z,1.42
2023-01-05T11:35:36.587Z,1.23
2023-01-05T11:38:28.232Z,1.90
2023-01-05T11:41:14.406Z,1.67
2023-01-05T11:44:03.270Z,3.25
2023-01-05T11:46:49.620Z,2.42
2023-01-05T11:49:36.182Z,1.70
2023-01-05T11:52:35.731Z,1.08
2023-01-05T11:55:24.342Z,1.05
2023-01-05T11:58:12.728Z,1.38
2023-01-05T12:01:04.280Z,0.80
2023-01-05T12:03:58.545Z,1.20
2023-01-05T12:07:28.827Z,2.10
2023-01-05T12:10:35.151Z,0.82
2023-01-05T12:13:49.071Z,0.73
2023-01-05T12:17:10.225Z,1.42
2023-01-05T12:20:30.464Z,1.67
2023-01-05T12:23:27.740Z,1.50
2023-01-05T12:26:22.688Z,1.73
2023-01-05T12:36:18.658Z,1.15
2023-01-05T12:39:15.635Z,1.48
2023-01-05T12:42:20.304Z,1.58
2023-01-05T12:45:39.999Z,2.28
2023-01-05T12:51:40.133Z,1.27
2023-01-05T12:54:47.802Z,1.20
2023-01-05T12:57:41.865Z,1.35
2023-01-05T13:00:33.845Z,1.00
2023-01-05T13:03:22.019Z,1.00
2023-01-05T13:06:18.074Z,0.65
2023-01-05T13:09:13.692Z,1.08
2023-01-05T13:12:06.552Z,0.98
2023-01-05T13:15:27.609Z,0.73
2023-01-05T13:18:17.585Z,1.58
2023-01-05T13:21:09.481Z,0.70
2023-01-05T13:24:08.815Z,1.08
2023-01-05T13:26:57.166Z,0.68
2023-01-05T13:29:48.933Z,0.80
2023-01-05T13:32:55.935Z,2.50
2023-01-05T13:35:54.018Z,0.65
2023-01-05T13:38:57.984Z,1.27
2023-01-05T13:42:26.581Z,4.65
2023-01-05T13:45:55.591Z,9.60
2023-01-05T13:49:03.795Z,5.72
2023-01-05T13:52:31.782Z,6.95
2023-01-05T13:55:25.758Z,6.00
2023-01-05T13:58:38.685Z,6.47
2023-01-05T14:01:42.340Z,5.93
2023-01-05T14:04:35.445Z,5.60
2023-01-05T14:07:21.949Z,5.95
2023-01-05T14:10:22.493Z,8.50
2023-01-05T14:13:46.700Z,11.88
2023-01-05T14:16:35.762Z,5.97
2023-01-05T14:19:21.195Z,8.00
2023-01-05T14:22:32.682Z,6.90
2023-01-05T14:25:40.259Z,8.85
2023-01-05T14:28:29.306Z,12.77
2023-01-05T14:31:14.935Z,15.25
2023-01-05T14:34:04.161Z,6.00
2023-01-05T14:36:58.560Z,10.10
2023-01-05T14:39:45.789Z,8.82
2023-01-05T14:42:36.075Z,12.93
2023-01-05T14:45:33.417Z,12.55
2023-01-05T14:48:33.446Z,8.43
2023-01-05T14:51:26.467Z,14.93
2023-01-05T14:54:12.032Z,7.40
2023-01-05T14:57:25.678Z,6.22
2023-01-05T15:00:11.544Z,11.13
2023-01-05T15:06:26.360Z,10.77
2023-01-05T15:09:41.358Z,8.20
2023-01-05T15:12:52.329Z,7.18
2023-01-05T15:15:55.461Z,9.57
2023-01-05T15:19:21.648Z,7.43
2023-01-05T15:22:39.169Z,3.70
2023-01-05T15:25:46.070Z,2.42
2023-01-05T15:31:53.361Z,7.28
2023-01-05T15:35:10.942Z,5.20
2023-01-05T15:37:56.560Z,3.15
2023-01-05T15:40:42.432Z,6.05
2023-01-05T15:43:28.562Z,5.97
2023-01-05T15:46:22.631Z,7.18
2023-01-05T15:49:20.300Z,6.25
2023-01-05T15:52:16.017Z,4.13
2023-01-05T15:55:21.982Z,6.32
2023-01-05T15:58:15.925Z,6.45
2023-01-05T16:01:05.674Z,5.03
2023-01-05T16:06:39.647Z,4.18
2023-01-05T16:09:38.714Z,8.38
2023-01-05T16:12:25.008Z,3.53
2023-01-05T16:15:15.816Z,3.33
2023-01-05T16:18:03.550Z,7.85
2023-01-05T16:20:52.336Z,3.42
2023-01-05T16:23:43.313Z,8.80
2023-01-05T16:26:29.613Z,7.35
2023-01-05T16:29:39.833Z,2.17
2023-01-05T16:32:33.540Z,4.43
2023-01-05T16:35:42.591Z,4.13
2023-01-05T16:38:30.342Z,1.38
2023-01-05T16:41:23.446Z,2.35
2023-01-05T16:44:13.490Z,4.03
2023-01-05T16:49:58.315Z,2.50
2023-01-05T16:52:55.456Z,2.88
2023-01-05T16:55:41.591Z,4.30
2023-01-05T16:58:30.496Z,4.65
2023-01-05T17:01:27.023Z,8.52
2023-01-05T17:04:16.940Z,6.93
2023-01-05T17:07:02.413Z,8.27
2023-01-05T17:09:48.091Z,7.78
2023-01-05T17:12:34.040Z,9.00
2023-01-05T17:15:24.272Z,14.75
2023-01-05T17:21:04.978Z,11.98
2023-01-05T17:23:56.713Z,12.87
2023-01-05T17:26:45.395Z,9.50
2023-01-05T17:29:33.013Z,7.63
2023-01-05T17:32:18.668Z,8.38
2023-01-05T17:35:07.637Z,8.07
2023-01-05T17:37:53.339Z,6.95
2023-01-05T17:40:40.181Z,9.80
2023-01-05T17:43:26.510Z,6.22
2023-01-05T17:46:21.001Z,4.53
2023-01-05T17:49:15.798Z,4.22
2023-01-05T17:52:01.508Z,3.75
2023-01-05T17:54:47.418Z,2.45
2023-01-05T17:57:32.798Z,2.25
2023-01-05T18:00:22.019Z,3.47
2023-01-05T18:03:10.280Z,3.90
2023-01-05T18:05:55.944Z,5.05
2023-01-05T18:11:28.198Z,3.60
2023-01-05T18:14:13.653Z,2.90
2023-01-05T18:16:59.509Z,5.10
2023-01-05T18:19:45.482Z,3.72
2023-01-05T18:25:21.911Z,2.28
2023-01-05T18:28:07.529Z,3.38
2023-01-05T18:33:44.663Z,2.80
2023-01-05T18:36:30.213Z,2.55
2023-01-05T18:39:15.767Z,5.03
2023-01-05T18:42:01.736Z,2.40
2023-01-05T18:44:47.585Z,3.28
2023-01-05T18:47:32.960Z,3.33
2023-01-05T18:50:18.706Z,3.00
2023-01-05T18:53:04.543Z,1.98
2023-01-05T18:55:50.534Z,5.20
2023-01-05T18:58:36.692Z,2.85
2023-01-05T19:01:24.147Z,6.53
2023-01-05T19:04:15.769Z,3.35
2023-01-05T19:07:01.492Z,2.00
2023-01-05T19:09:47.009Z,4.00
2023-01-05T19:12:32.755Z,4.28
2023-01-05T19:15:18.277Z,3.83
2023-01-05T19:18:04.255Z,3.60
2023-01-05T19:20:56.931Z,4.03
2023-01-05T19:23:42.562Z,3.80
2023-01-05T19:26:31.588Z,2.90
2023-01-05T19:29:18.810Z,4.88
2023-01-05T19:32:04.925Z,3.83
2023-01-05T19:34:50.752Z,3.80
2023-01-05T19:37:38.367Z,5.05
2023-01-05T19:40:24.588Z,7.55
2023-01-05T19:43:10.453Z,6.53
2023-01-05T19:46:05.664Z,6.45
2023-01-05T19:48:53.062Z,7.63
2023-01-05T19:51:38.883Z,6.72
2023-01-05T19:54:26.169Z,9.48
2023-01-05T19:57:11.927Z,9.30
2023-01-05T19:59:58.554Z,9.55
2023-01-05T20:02:44.402Z,9.82
2023-01-05T20:05:29.990Z,9.32
2023-01-05T20:08:15.660Z,8.57
2023-01-05T20:11:09.363Z,9.60
2023-01-05T20:13:55.142Z,9.00
2023-01-05T20:16:42.090Z,7.05
2023-01-05T20:19:29.319Z,6.50
2023-01-05T20:22:15.141Z,5.88
2023-01-05T20:25:00.827Z,5.65
2023-01-05T20:27:46.475Z,5.72
2023-01-05T20:30:34.453Z,5.35
2023-01-05T20:33:20.087Z,5.35
2023-01-05T20:36:05.809Z,4.88
2023-01-05T20:38:52.160Z,5.07
2023-01-05T20:41:40.505Z,7.95
2023-01-05T20:44:26.715Z,7.88
2023-01-05T20:47:13.530Z,5.10
2023-01-05T20:49:59.011Z,7.45
2023-01-05T20:52:44.573Z,5.85
2023-01-05T20:55:30.503Z,6.57
2023-01-05T20:58:15.943Z,5.38
2023-01-05T21:01:10.724Z,4.70
2023-01-05T21:03:57.836Z,4.28
2023-01-05T21:06:44.158Z,3.63
2023-01-05T21:09:30.816Z,3.80
2023-01-05T21:12:16.597Z,4.82
2023-01-05T21:15:02.441Z,3.97
2023-01-05T21:17:48.864Z,4.22
2023-01-05T21:20:34.590Z,5.80
2023-01-05T21:23:20.539Z,3.97
2023-01-05T21:26:12.829Z,3.47
2023-01-05T21:28:59.427Z,3.92
2023-01-05T21:31:45.050Z,4.00
2023-01-05T21:34:30.403Z,3.17
2023-01-05T21:37:16.386Z,3.70
2023-01-05T21:40:02.412Z,3.58
2023-01-05T21:42:50.220Z,3.17
2023-01-05T21:45:35.740Z,2.70
2023-01-05T21:48:21.472Z,4.10
2023-01-05T21:51:25.602Z,3.17
2023-01-05T21:54:30.156Z,4.25
2023-01-05T21:57:16.347Z,3.80
2023-01-05T22:00:02.036Z,1.88
2023-01-05T22:02:50.591Z,3.45
2023-01-05T22:05:36.200Z,2.38
2023-01-05T22:08:23.844Z,3.03
2023-01-05T22:11:09.787Z,2.30
2023-01-05T22:13:55.814Z,2.17
2023-01-05T22:16:41.358Z,3.08
2023-01-05T22:19:26.915Z,2.95
2023-01-05T22:22:12.464Z,2.58
2023-01-05T22:24:57.931Z,2.00
2023-01-05T22:27:43.577Z,2.97
2023-01-05T22:30:29.418Z,4.68
2023-01-05T22:33:15.002Z,2.33
2023-01-05T22:36:01.121Z,2.40
2023-01-05T22:38:48.896Z,2.97
2023-01-05T22:41:34.715Z,2.85
2023-01-05T22:44:20.169Z,3.88
2023-01-05T22:47:06.136Z,4.82
2023-01-05T22:49:51.571Z,5.32
2023-01-05T22:52:37.225Z,5.35
2023-01-05T22:55:22.809Z,3.03
2023-01-05T22:58:08.559Z,2.40
2023-01-05T23:00:54.574Z,5.70
2023-01-05T23:03:41.478Z,2.60
2023-01-05T23:06:27.929Z,4.45
2023-01-05T23:09:16.266Z,2.67
2023-01-05T23:12:02.086Z,3.13
2023-01-05T23:14:47.734Z,3.22
2023-01-05T23:17:33.438Z,2.85
2023-01-05T23:20:18.981Z,3.15
2023-01-05T23:23:04.330Z,3.10
2023-01-05T23:25:51.321Z,2.80
2023-01-05T23:28:37.987Z,2.65
2023-01-05T23:31:24.147Z,3.15
2023-01-05T23:34:09.911Z,1.52
2023-01-05T23:36:55.440Z,3.15
2023-01-05T23:39:41.021Z,2.97
2023-01-05T23:42:46.186Z,3.30
2023-01-05T23:45:32.077Z,2.20
2023-01-05T23:48:18.446Z,1.95
2023-01-05T23:51:06.271Z,1.90
2023-01-05T23:53:53.368Z,2.83
2023-01-05T23:56:38.997Z,1.63
2023-01-05T23:59:24.707Z,2.13
